ADDS METAR Data INFO
IDs: Format: Raw Decoded Include TAF

Data at: 0511 UTC 22 Jul 2017

KDHT 220453Z AUTO 18010KT 10SM CLR 25/11 A3004 RMK AO2 SLP101 T02500106
KDHT 220353Z AUTO 17008KT 10SM CLR 26/10 A3004 RMK AO2 SLP099 T02610100
KDHT 220253Z AUTO 17010KT 10SM CLR 29/09 A3002 RMK AO2 SLP092 T02890094 53012
KDHT 220153Z AUTO 17011KT 10SM CLR 32/09 A3000 RMK AO2 SLP085 T03170094
KDHT 220053Z AUTO 17015KT 10SM CLR 34/09 A2999 RMK AO2 PK WND 18029/0019 SLP081 T03440089
KDHT 212353Z AUTO 18014G22KT 10SM CLR 36/07 A2998 RMK AO2 SLP079 T03610072 10378 20344 56014
KDHT 212253Z AUTO 17013G27KT 10SM CLR 37/07 A2999 RMK AO2 PK WND 17027/2249 SLP082 T03720067
KDHT 212153Z AUTO 21012G18KT 10SM CLR 37/08 A3001 RMK AO2 SLP090 T03720078
KDHT 212053Z AUTO 22015G24KT 10SM CLR 37/09 A3002 RMK AO2 SLP096 T03720089 58019
KDHT 211953Z AUTO 19012G25KT 10SM CLR 37/09 A3005 RMK AO2 SLP104 T03670094
KDHT 211853Z AUTO 21018G25KT 10SM FEW095 35/10 A3008 RMK AO2 PK WND 21026/1818 SLP114 T03500100
KDHT 211753Z AUTO 20011G21KT 10SM CLR 36/11 A3009 RMK AO2 SLP116 T03560106 10361 20222 58004
KDHT 211653Z AUTO 19015G21KT 10SM CLR 34/13 A3010 RMK AO2 SLP117 T03440128
KDHT 211553Z AUTO 20013KT 10SM CLR 32/13 A3010 RMK AO2 SLP118 T03220133
KDHT 211453Z AUTO 19013KT 10SM CLR 30/13 A3010 RMK AO2 SLP120 T03000128 50006
KDHT 211353Z AUTO 20015KT 9SM CLR 27/12 A3011 RMK AO2 SLP123 T02670122
KDHT 211253Z AUTO 22011KT 10SM CLR 24/12 A3010 RMK AO2 SLP119 T02440122
KDHT 211153Z AUTO 23010G16KT 10SM CLR 22/12 A3008 RMK AO2 SLP114 T02220122 10244 20200 53000
KDHT 211053Z AUTO 21010KT 10SM CLR 22/12 A3007 RMK AO2 SLP111 T02220122
KDHT 210953Z AUTO 21008KT 10SM CLR 21/13 A3007 RMK AO2 SLP111 T02060128
KDHT 210853Z AUTO 19008KT 10SM CLR 20/12 A3008 RMK AO2 SLP117 T02000122 58007
KDHT 210753Z AUTO 18009KT 10SM CLR 22/12 A3009 RMK AO2 SLP118 T02220122
KDHT 210653Z AUTO 18009KT 10SM CLR 23/12 A3010 RMK AO2 SLP121 T02330122
KDHT 210553Z AUTO 18009KT 10SM CLR 24/12 A3010 RMK AO2 SLP122 T02440117 10367 20244 403780183 51012
KDHT 210453Z AUTO 18012KT 10SM CLR 27/11 A3010 RMK AO2 SLP118 T02670111
KDHT 210353Z AUTO 17011KT 10SM CLR 28/11 A3008 RMK AO2 SLP114 T02830106
KDHT 210253Z AUTO 16011KT 10SM CLR 29/10 A3006 RMK AO2 SLP108 T02940100 53007
KDHT 210153Z AUTO 15010KT 10SM CLR 32/10 A3005 RMK AO2 SLP102 T03220100
KDHT 210053Z AUTO 21008KT 10SM CLR 36/08 A3003 RMK AO2 SLP099 T03560078
KDHT 202353Z AUTO 22012G16KT 10SM CLR 36/07 A3004 RMK AO2 SLP103 T03610072 10378 20344 56023
KDHT 202253Z AUTO 21012G21KT 10SM CLR 37/09 A3006 RMK AO2 SLP111 T03720094
KDHT 202153Z AUTO 24010G17KT 10SM CLR 37/09 A3009 RMK AO2 SLP121 T03670094
KDHT 202053Z AUTO 22014G21KT 10SM CLR 37/10 A3012 RMK AO2 SLP128 T03670100 56019
KDHT 201953Z AUTO 22017G23KT 10SM CLR 36/12 A3013 RMK AO2 SLP135 T03610117
KDHT 201853Z AUTO 21017G26KT 10SM CLR 35/12 A3016 RMK AO2 PK WND 22026/1851 SLP142 T03500122
KDHT 201753Z AUTO 21017G22KT 10SM CLR 34/13 A3018 RMK AO2 PK WND 21026/1724 SLP147 T03440133 10344 20194 56010